createdAt,value
2018-12-24T00:00:06.488Z,9.00
2018-12-24T00:01:06.409Z,10.20
2018-12-24T00:02:06.307Z,11.00
2018-12-24T00:03:06.232Z,9.90
2018-12-24T00:04:06.138Z,10.70
2018-12-24T00:05:06.052Z,10.60
2018-12-24T00:06:05.998Z,11.80
2018-12-24T00:07:05.877Z,10.90
2018-12-24T00:08:05.811Z,11.20
2018-12-24T00:09:05.705Z,11.80
2018-12-24T00:10:05.619Z,13.60
2018-12-24T00:11:05.540Z,12.10
2018-12-24T00:12:07.229Z,11.20
2018-12-24T00:13:05.370Z,9.40
2018-12-24T00:14:05.282Z,8.80
2018-12-24T00:15:05.204Z,9.40
2018-12-24T00:16:05.112Z,9.80
2018-12-24T00:17:05.035Z,9.70
2018-12-24T00:18:04.944Z,8.00
2018-12-24T00:19:04.850Z,8.00
2018-12-24T00:20:04.764Z,7.90
2018-12-24T00:21:04.683Z,9.00
2018-12-24T00:22:04.610Z,8.20
2018-12-24T00:23:04.512Z,9.40
2018-12-24T00:24:04.429Z,7.10
2018-12-24T00:25:04.337Z,8.40
2018-12-24T00:26:04.251Z,7.60
2018-12-24T00:27:04.185Z,7.60
2018-12-24T00:28:04.083Z,6.10
2018-12-24T00:29:03.999Z,6.10
2018-12-24T00:30:03.916Z,6.50
2018-12-24T00:31:03.823Z,5.70
2018-12-24T00:32:03.857Z,5.60
2018-12-24T00:33:03.657Z,7.20
2018-12-24T00:34:03.572Z,7.30
2018-12-24T00:35:03.482Z,7.20
2018-12-24T00:36:03.409Z,6.60
2018-12-24T00:37:03.368Z,7.80
2018-12-24T00:38:03.245Z,5.60
2018-12-24T00:39:03.147Z,5.30
2018-12-24T00:40:03.057Z,5.70
2018-12-24T00:41:02.966Z,5.10
2018-12-24T00:42:02.888Z,6.20
2018-12-24T00:43:02.810Z,5.60
2018-12-24T00:44:02.721Z,6.10
2018-12-24T00:45:02.625Z,6.10
2018-12-24T00:46:02.547Z,6.40
2018-12-24T00:47:02.453Z,6.30
2018-12-24T00:48:02.386Z,7.40
2018-12-24T00:49:02.288Z,6.80
2018-12-24T00:50:02.204Z,6.50
2018-12-24T00:51:02.111Z,7.40
2018-12-24T00:52:02.032Z,6.60
2018-12-24T00:53:01.957Z,6.50
2018-12-24T00:54:01.865Z,7.00
2018-12-24T00:55:01.770Z,7.90
2018-12-24T00:56:01.690Z,7.40
2018-12-24T00:57:01.723Z,8.70
2018-12-24T00:58:01.535Z,8.20
2018-12-24T00:59:01.429Z,8.60
2018-12-24T01:00:01.402Z,10.00
2018-12-24T01:01:01.258Z,8.40
2018-12-24T01:02:01.175Z,10.70
2018-12-24T01:03:01.118Z,10.90
2018-12-24T01:04:01.006Z,10.00
2018-12-24T01:05:00.915Z,10.30
2018-12-24T01:06:00.838Z,10.50
2018-12-24T01:07:00.744Z,10.90
2018-12-24T01:08:00.660Z,12.00
2018-12-24T01:09:00.583Z,13.20
2018-12-24T01:10:00.490Z,12.50
2018-12-24T01:11:00.406Z,12.20
2018-12-24T01:12:00.326Z,12.80
2018-12-24T01:13:00.228Z,12.90
2018-12-24T01:14:00.165Z,14.40
2018-12-24T01:15:00.268Z,12.70
2018-12-24T01:15:59.976Z,13.50
2018-12-24T01:16:59.896Z,14.10
2018-12-24T01:17:59.806Z,12.60
2018-12-24T01:18:59.733Z,13.50
2018-12-24T01:19:59.639Z,12.50
2018-12-24T01:20:59.543Z,11.50
2018-12-24T01:21:59.457Z,12.20
2018-12-24T01:22:59.381Z,12.00
2018-12-24T01:23:59.306Z,14.50
2018-12-24T01:24:59.205Z,12.80
2018-12-24T01:25:59.121Z,13.00
2018-12-24T01:26:59.031Z,12.50
2018-12-24T01:27:58.944Z,11.80
2018-12-24T01:28:58.883Z,12.00
2018-12-24T01:29:58.774Z,12.20
2018-12-24T01:30:58.695Z,12.10
2018-12-24T01:31:58.615Z,11.70
2018-12-24T01:32:58.516Z,13.40
2018-12-24T01:33:58.451Z,13.20
2018-12-24T01:34:58.347Z,10.60
2018-12-24T01:35:58.271Z,11.30
2018-12-24T01:36:58.184Z,14.20
2018-12-24T01:37:58.092Z,11.80
2018-12-24T01:38:58.026Z,11.60
2018-12-24T01:39:57.923Z,13.00
2018-12-24T01:40:57.845Z,11.20
2018-12-24T01:41:57.747Z,12.50
2018-12-24T01:42:57.664Z,12.70
2018-12-24T01:43:57.587Z,14.90
2018-12-24T01:44:57.505Z,13.60
2018-12-24T01:45:57.406Z,12.10
2018-12-24T01:46:57.332Z,11.80
2018-12-24T01:47:57.234Z,13.60
2018-12-24T01:48:57.151Z,11.50
2018-12-24T01:49:57.086Z,13.00
2018-12-24T01:50:56.978Z,12.40
2018-12-24T01:51:56.988Z,12.80
2018-12-24T01:52:56.815Z,12.20
2018-12-24T01:53:56.721Z,11.10
2018-12-24T01:54:56.651Z,11.20
2018-12-24T01:55:56.557Z,12.10
2018-12-24T01:56:56.464Z,11.10
2018-12-24T01:57:56.380Z,11.70
2018-12-24T01:58:56.305Z,13.10
2018-12-24T01:59:56.224Z,12.00
2018-12-24T02:00:56.129Z,12.90
2018-12-24T02:01:56.040Z,12.50
2018-12-24T02:02:55.961Z,12.30
2018-12-24T02:03:55.867Z,12.90
2018-12-24T02:04:55.808Z,17.00
2018-12-24T02:05:55.697Z,13.40
2018-12-24T02:06:55.611Z,13.30
2018-12-24T02:07:55.524Z,13.00
2018-12-24T02:08:55.444Z,12.60
2018-12-24T02:09:55.367Z,13.00
2018-12-24T02:10:55.274Z,13.60
2018-12-24T02:11:55.188Z,13.00
2018-12-24T02:12:55.105Z,14.70
2018-12-24T02:13:55.022Z,15.20
2018-12-24T02:14:54.946Z,14.30
2018-12-24T02:15:54.843Z,15.40
2018-12-24T02:16:54.756Z,14.30
2018-12-24T02:17:54.678Z,14.10
2018-12-24T02:18:54.592Z,14.50
2018-12-24T02:19:54.527Z,16.10
2018-12-24T02:20:54.415Z,17.00
2018-12-24T02:21:54.329Z,14.20
2018-12-24T02:22:54.250Z,14.50
2018-12-24T02:23:54.157Z,14.20
2018-12-24T02:24:54.071Z,14.80
2018-12-24T02:25:54.013Z,14.10
2018-12-24T02:26:53.908Z,14.00
2018-12-24T02:27:53.815Z,13.70
2018-12-24T02:28:53.739Z,14.50
2018-12-24T02:29:53.651Z,14.50
2018-12-24T02:30:53.581Z,13.40
2018-12-24T02:31:53.474Z,13.60
2018-12-24T02:32:53.404Z,14.70
2018-12-24T02:33:53.309Z,14.70
2018-12-24T02:34:53.218Z,13.70
2018-12-24T02:35:53.162Z,14.20
2018-12-24T02:36:53.051Z,14.70
2018-12-24T02:37:52.961Z,14.00
2018-12-24T02:38:52.881Z,14.60
2018-12-24T02:39:52.791Z,14.20
2018-12-24T02:40:52.726Z,14.60
2018-12-24T02:41:52.624Z,14.60
2018-12-24T02:42:52.900Z,14.20
2018-12-24T02:43:52.451Z,16.10
2018-12-24T02:44:52.370Z,15.40
2018-12-24T02:45:52.411Z,14.00
2018-12-24T02:46:52.202Z,13.90
2018-12-24T02:47:52.125Z,14.10
2018-12-24T02:48:52.028Z,14.60
2018-12-24T02:49:51.936Z,14.60
2018-12-24T02:50:51.863Z,15.10
2018-12-24T02:51:51.779Z,13.70
2018-12-24T02:52:51.690Z,13.90
2018-12-24T02:53:51.595Z,13.70
2018-12-24T02:54:51.522Z,14.40
2018-12-24T02:55:51.423Z,13.20
2018-12-24T02:56:51.357Z,13.90
2018-12-24T02:57:51.253Z,14.90
2018-12-24T02:58:51.169Z,13.80
2018-12-24T02:59:51.092Z,14.50
2018-12-24T03:00:50.995Z,14.00
2018-12-24T03:01:50.928Z,16.40
2018-12-24T03:02:50.833Z,15.00
2018-12-24T03:03:50.742Z,14.60
2018-12-24T03:04:50.665Z,13.50
2018-12-24T03:05:50.576Z,14.50
2018-12-24T03:06:50.522Z,14.00
2018-12-24T03:07:50.407Z,16.70
2018-12-24T03:08:50.325Z,14.90
2018-12-24T03:09:50.228Z,14.50
2018-12-24T03:10:50.156Z,13.60
2018-12-24T03:11:50.057Z,14.10
2018-12-24T03:12:49.995Z,13.30
2018-12-24T03:13:49.892Z,13.50
2018-12-24T03:14:49.807Z,12.70
2018-12-24T03:15:49.716Z,14.00
2018-12-24T03:16:49.641Z,13.50
2018-12-24T03:17:49.563Z,12.00
2018-12-24T03:18:49.466Z,12.10
2018-12-24T03:19:49.382Z,12.70
2018-12-24T03:20:49.291Z,12.30
2018-12-24T03:21:49.207Z,12.50
2018-12-24T03:22:49.146Z,12.40
2018-12-24T03:23:49.036Z,12.40
2018-12-24T03:24:48.956Z,12.70
2018-12-24T03:25:48.869Z,12.00
2018-12-24T03:26:48.786Z,13.00
2018-12-24T03:27:48.721Z,12.30
2018-12-24T03:28:48.617Z,12.40
2018-12-24T03:29:48.532Z,13.00
2018-12-24T03:30:48.440Z,13.30
2018-12-24T03:31:48.361Z,13.00
2018-12-24T03:32:48.299Z,13.60
2018-12-24T03:33:48.190Z,13.00
2018-12-24T03:34:48.104Z,13.50
2018-12-24T03:35:48.015Z,13.20
2018-12-24T03:36:47.925Z,13.80
2018-12-24T03:37:47.848Z,13.50
2018-12-24T03:38:47.769Z,13.70
2018-12-24T03:39:47.675Z,14.60
2018-12-24T03:40:47.589Z,13.80
2018-12-24T03:41:47.507Z,14.10
2018-12-24T03:42:47.417Z,13.80
2018-12-24T03:43:47.347Z,13.40
2018-12-24T03:44:47.245Z,14.60
2018-12-24T03:45:47.164Z,14.00
2018-12-24T03:46:47.072Z,14.30
2018-12-24T03:47:46.993Z,14.10
2018-12-24T03:48:46.919Z,13.40
2018-12-24T03:49:46.821Z,14.60
2018-12-24T03:50:46.730Z,14.00
2018-12-24T03:51:46.650Z,13.80
2018-12-24T03:52:46.566Z,13.90
2018-12-24T03:53:46.526Z,14.60
2018-12-24T03:54:46.391Z,14.30
2018-12-24T03:55:46.309Z,14.40
2018-12-24T03:56:46.219Z,15.00
2018-12-24T03:57:46.140Z,15.00
2018-12-24T03:58:46.048Z,16.10
2018-12-24T03:59:45.985Z,16.70
2018-12-24T04:00:45.883Z,15.20
2018-12-24T04:01:45.808Z,15.00
2018-12-24T04:02:45.715Z,14.10
2018-12-24T04:03:45.620Z,14.90
2018-12-24T04:04:45.569Z,15.40
2018-12-24T04:05:45.452Z,15.00
2018-12-24T04:06:45.366Z,13.80
2018-12-24T04:07:45.287Z,14.40
2018-12-24T04:08:45.196Z,14.00
2018-12-24T04:09:45.130Z,15.00
2018-12-24T04:10:45.033Z,13.70
2018-12-24T04:11:44.939Z,13.70
2018-12-24T04:12:44.853Z,13.50
2018-12-24T04:13:44.775Z,14.00
2018-12-24T04:14:44.696Z,13.10
2018-12-24T04:15:44.603Z,14.10
2018-12-24T04:16:44.523Z,12.90
2018-12-24T04:17:44.428Z,12.30
2018-12-24T04:18:44.342Z,13.30
2018-12-24T04:19:44.280Z,13.90
2018-12-24T04:20:44.181Z,12.20
2018-12-24T04:21:44.098Z,12.40
2018-12-24T04:22:44.001Z,12.30
2018-12-24T04:23:43.925Z,11.60
2018-12-24T04:24:43.860Z,12.50
2018-12-24T04:25:43.753Z,11.80
2018-12-24T04:26:43.669Z,11.50
2018-12-24T04:27:43.575Z,11.90
2018-12-24T04:28:43.489Z,12.60
2018-12-24T04:29:43.447Z,11.90
2018-12-24T04:30:43.328Z,11.80
2018-12-24T04:31:43.348Z,12.00
2018-12-24T04:32:43.155Z,12.50
2018-12-24T04:33:43.068Z,12.50
2018-12-24T04:34:42.978Z,12.40
2018-12-24T04:35:42.906Z,14.20
2018-12-24T04:36:42.814Z,11.70
2018-12-24T04:37:42.735Z,12.00
2018-12-24T04:38:42.638Z,12.70
2018-12-24T04:39:42.559Z,13.00
2018-12-24T04:40:42.481Z,12.10
2018-12-24T04:41:42.395Z,11.90
2018-12-24T04:42:42.303Z,12.30
2018-12-24T04:43:42.225Z,12.70
2018-12-24T04:44:42.135Z,14.40
2018-12-24T04:45:42.057Z,11.90
2018-12-24T04:46:41.962Z,12.30
2018-12-24T04:47:41.877Z,12.30
2018-12-24T04:48:41.789Z,12.20
2018-12-24T04:49:41.722Z,11.90
2018-12-24T04:50:41.631Z,12.40
2018-12-24T04:51:41.530Z,13.10
2018-12-24T04:52:41.451Z,14.50
2018-12-24T04:53:41.360Z,12.90
2018-12-24T04:54:41.281Z,12.80
2018-12-24T04:55:41.209Z,13.10
2018-12-24T04:56:41.101Z,12.60
2018-12-24T04:57:41.018Z,12.80
2018-12-24T04:58:40.940Z,15.20
2018-12-24T04:59:40.846Z,12.90
2018-12-24T05:00:40.779Z,11.90
2018-12-24T05:01:40.684Z,12.60
2018-12-24T05:02:40.594Z,12.20
2018-12-24T05:03:40.512Z,13.20
2018-12-24T05:04:40.432Z,12.70
2018-12-24T05:05:40.353Z,11.10
2018-12-24T05:06:40.256Z,12.10
2018-12-24T05:07:40.162Z,11.90
2018-12-24T05:08:40.086Z,12.70
2018-12-24T05:09:40.000Z,12.70
2018-12-24T05:10:39.910Z,12.10
2018-12-24T05:11:39.836Z,11.70
2018-12-24T05:12:39.744Z,11.60
2018-12-24T05:13:41.053Z,11.80
2018-12-24T05:14:39.567Z,11.70
2018-12-24T05:15:39.485Z,11.60
2018-12-24T05:16:39.412Z,11.20
2018-12-24T05:17:39.315Z,12.70
2018-12-24T05:18:39.236Z,12.60
2018-12-24T05:19:39.141Z,11.90
2018-12-24T05:20:39.056Z,11.50
2018-12-24T05:21:38.990Z,11.70
2018-12-24T05:22:38.885Z,11.40
2018-12-24T05:23:38.799Z,12.40
2018-12-24T05:24:38.721Z,11.30
2018-12-24T05:25:38.629Z,11.50
2018-12-24T05:26:38.568Z,11.30
2018-12-24T05:27:38.459Z,11.60
2018-12-24T05:28:38.379Z,10.70
2018-12-24T05:29:38.292Z,10.90
2018-12-24T05:30:38.202Z,14.60
2018-12-24T05:31:38.129Z,11.90
2018-12-24T05:32:38.046Z,11.30
2018-12-24T05:33:37.947Z,12.00
2018-12-24T05:34:37.868Z,12.10
2018-12-24T05:35:37.781Z,11.20
2018-12-24T05:36:37.693Z,11.50
2018-12-24T05:37:37.731Z,12.50
2018-12-24T05:38:37.522Z,12.70
2018-12-24T05:39:37.434Z,11.40
2018-12-24T05:40:37.356Z,11.10
2018-12-24T05:41:37.264Z,11.00
2018-12-24T05:42:37.208Z,12.70
2018-12-24T05:43:37.093Z,10.80
2018-12-24T05:44:37.023Z,11.40
2018-12-24T05:45:36.928Z,11.70
2018-12-24T05:46:36.845Z,10.40
2018-12-24T05:47:36.777Z,9.90
2018-12-24T05:48:36.677Z,11.40
2018-12-24T05:49:36.585Z,10.30
2018-12-24T05:50:36.498Z,11.40
2018-12-24T05:51:36.413Z,11.20
2018-12-24T05:52:36.353Z,10.30
2018-12-24T05:53:36.242Z,9.70
2018-12-24T05:54:36.156Z,11.30
2018-12-24T05:55:36.083Z,11.60
2018-12-24T05:56:35.993Z,11.70
2018-12-24T05:57:35.915Z,10.90
2018-12-24T05:58:35.823Z,10.60
2018-12-24T05:59:35.739Z,10.10
2018-12-24T06:00:35.652Z,10.90
2018-12-24T06:01:35.567Z,10.80
2018-12-24T06:02:35.507Z,10.90
2018-12-24T06:03:35.398Z,10.40
2018-12-24T06:04:35.378Z,11.40
2018-12-24T06:05:35.244Z,11.80
2018-12-24T06:06:35.140Z,12.40
2018-12-24T06:07:35.056Z,11.50
2018-12-24T06:08:34.987Z,12.30
2018-12-24T06:09:34.892Z,11.50
2018-12-24T06:10:34.795Z,12.10
2018-12-24T06:11:34.710Z,11.30
2018-12-24T06:12:34.629Z,11.10
2018-12-24T06:13:34.553Z,12.30
2018-12-24T06:14:34.452Z,11.80
2018-12-24T06:15:34.376Z,11.00
2018-12-24T06:16:34.279Z,11.60
2018-12-24T06:17:34.209Z,14.70
2018-12-24T06:18:34.126Z,11.70
2018-12-24T06:19:34.032Z,12.00
2018-12-24T06:20:37.803Z,12.50
2018-12-24T06:21:33.861Z,12.10
2018-12-24T06:22:33.777Z,11.00
2018-12-24T06:23:33.711Z,12.20
2018-12-24T06:24:33.604Z,13.90
2018-12-24T06:25:33.544Z,11.80
2018-12-24T06:26:33.431Z,11.00
2018-12-24T06:27:33.346Z,12.50
2018-12-24T06:28:33.276Z,14.70
2018-12-24T06:29:33.186Z,11.50
2018-12-24T06:30:33.089Z,11.80
2018-12-24T06:31:33.004Z,11.30
2018-12-24T06:32:32.923Z,11.80
2018-12-24T06:33:32.861Z,10.80
2018-12-24T06:34:32.758Z,11.00
2018-12-24T06:35:32.664Z,12.20
2018-12-24T06:36:32.583Z,10.90
2018-12-24T06:37:32.496Z,12.20
2018-12-24T06:38:32.421Z,11.60
2018-12-24T06:39:32.344Z,10.70
2018-12-24T06:40:32.248Z,12.30
2018-12-24T06:41:32.157Z,10.90
2018-12-24T06:42:32.074Z,11.10
2018-12-24T06:43:31.992Z,12.40
2018-12-24T06:44:31.908Z,10.30
2018-12-24T06:45:31.810Z,13.40
2018-12-24T06:46:31.734Z,14.10
2018-12-24T06:47:31.640Z,11.60
2018-12-24T06:48:31.554Z,14.20
2018-12-24T06:49:31.490Z,10.50
2018-12-24T06:50:31.384Z,10.90
2018-12-24T06:51:31.303Z,11.70
2018-12-24T06:52:31.218Z,10.30
2018-12-24T06:53:31.136Z,11.30
2018-12-24T06:54:31.059Z,14.60
2018-12-24T06:55:30.967Z,13.10
2018-12-24T06:56:30.872Z,12.10
2018-12-24T06:57:30.792Z,12.30
2018-12-24T06:58:30.708Z,10.00
2018-12-24T06:59:30.631Z,11.50
2018-12-24T07:00:30.533Z,11.20
2018-12-24T07:01:30.462Z,11.50
2018-12-24T07:02:30.367Z,12.30
2018-12-24T07:03:30.285Z,10.90
2018-12-24T07:04:30.219Z,13.70
2018-12-24T07:05:30.110Z,14.60
2018-12-24T07:06:30.027Z,12.40
2018-12-24T07:07:29.939Z,10.50
2018-12-24T07:08:29.860Z,11.40
2018-12-24T07:09:29.764Z,10.80
2018-12-24T07:10:29.710Z,13.60
2018-12-24T07:11:29.605Z,10.40
2018-12-24T07:12:31.092Z,9.90
2018-12-24T07:13:29.430Z,13.10
2018-12-24T07:14:29.339Z,10.90
2018-12-24T07:15:29.275Z,13.20
2018-12-24T07:16:29.176Z,9.90
2018-12-24T07:17:29.085Z,8.80
2018-12-24T07:18:28.998Z,13.00
2018-12-24T07:19:28.922Z,10.50
2018-12-24T07:20:28.843Z,10.90
2018-12-24T07:21:28.749Z,10.80
2018-12-24T07:22:28.671Z,10.20
2018-12-24T07:23:28.571Z,12.10
2018-12-24T07:24:28.493Z,10.30
2018-12-24T07:25:28.414Z,9.30
2018-12-24T07:26:28.356Z,8.30
2018-12-24T07:27:28.229Z,9.80
2018-12-24T07:28:28.152Z,9.70
2018-12-24T07:29:28.065Z,11.30
2018-12-24T07:30:28.086Z,10.70
2018-12-24T07:31:27.925Z,9.10
2018-12-24T07:32:27.807Z,8.10
2018-12-24T07:33:27.866Z,9.70
2018-12-24T07:34:32.425Z,11.80
2018-12-24T07:35:27.566Z,10.70
2018-12-24T07:36:27.686Z,10.40
2018-12-24T07:37:27.377Z,8.40
2018-12-24T07:38:27.486Z,12.70
2018-12-24T07:39:27.207Z,8.50
2018-12-24T07:40:27.330Z,9.40
2018-12-24T07:41:27.039Z,8.70
2018-12-24T07:42:27.005Z,10.20
2018-12-24T07:43:26.866Z,10.00
2018-12-24T07:44:26.815Z,8.90
2018-12-24T07:45:26.697Z,9.80
2018-12-24T07:46:26.631Z,9.80
2018-12-24T07:47:26.528Z,12.10
2018-12-24T07:48:26.535Z,10.70
2018-12-24T07:49:26.355Z,11.20
2018-12-24T07:50:26.343Z,10.10
2018-12-24T07:51:26.197Z,9.70
2018-12-24T07:52:26.099Z,9.70
2018-12-24T07:53:26.021Z,9.30
2018-12-24T07:54:25.931Z,8.90
2018-12-24T07:55:25.845Z,8.40
2018-12-24T07:56:25.794Z,9.70
2018-12-24T07:57:25.674Z,10.30
2018-12-24T07:58:26.690Z,10.70
2018-12-24T07:59:25.586Z,9.60
2018-12-24T08:00:25.420Z,10.10
2018-12-24T08:01:25.347Z,9.80
2018-12-24T08:02:25.392Z,9.60
2018-12-24T08:03:25.163Z,9.30
2018-12-24T08:04:25.208Z,9.60
2018-12-24T08:05:24.999Z,9.40
2018-12-24T08:06:25.050Z,8.50
2018-12-24T08:07:24.825Z,8.60
2018-12-24T08:08:24.737Z,10.70
2018-12-24T08:09:24.827Z,10.70
2018-12-24T08:10:24.568Z,12.10
2018-12-24T08:11:24.483Z,9.70
2018-12-24T08:12:24.471Z,10.80
2018-12-24T08:13:24.320Z,11.00
2018-12-24T08:14:32.758Z,7.60
2018-12-24T08:15:24.141Z,11.60
2018-12-24T08:16:24.259Z,9.80
2018-12-24T08:17:23.988Z,7.70
2018-12-24T08:18:23.887Z,9.40
2018-12-24T08:19:23.806Z,8.90
2018-12-24T08:20:23.720Z,8.60
2018-12-24T08:21:23.630Z,9.30
2018-12-24T08:22:23.625Z,9.10
2018-12-24T08:23:23.460Z,8.10
2018-12-24T08:24:23.377Z,58.60
2018-12-24T08:25:23.309Z,28.40
2018-12-24T08:26:23.450Z,9.60
2018-12-24T08:27:23.138Z,7.80
2018-12-24T08:28:23.125Z,9.10
2018-12-24T08:29:22.953Z,8.20
2018-12-24T08:30:22.938Z,9.50
2018-12-24T08:31:22.777Z,8.40
2018-12-24T08:32:23.212Z,6.60
2018-12-24T08:33:23.492Z,9.40
2018-12-24T08:34:22.527Z,7.50
2018-12-24T08:35:22.439Z,7.10
2018-12-24T08:36:22.572Z,7.90
2018-12-24T08:37:22.275Z,9.90
2018-12-24T08:38:22.199Z,8.00
2018-12-24T08:39:22.208Z,6.70
2018-12-24T08:40:22.015Z,9.90
2018-12-24T08:41:21.988Z,9.40
2018-12-24T08:42:21.843Z,6.10
2018-12-24T08:43:21.834Z,7.10
2018-12-24T08:44:21.673Z,10.70
2018-12-24T08:45:21.817Z,7.90
2018-12-24T08:46:21.503Z,8.40
2018-12-24T08:47:21.619Z,8.00
2018-12-24T08:48:21.348Z,8.20
2018-12-24T08:49:21.431Z,7.30
2018-12-24T08:50:21.167Z,7.30
2018-12-24T08:51:21.237Z,6.50
2018-12-24T08:52:20.993Z,7.70
2018-12-24T08:53:20.922Z,8.00
2018-12-24T08:54:20.851Z,8.10
2018-12-24T08:55:20.742Z,7.10
2018-12-24T08:56:20.654Z,6.70
2018-12-24T08:57:20.667Z,9.30
2018-12-24T08:58:20.499Z,6.80
2018-12-24T08:59:20.403Z,9.30
2018-12-24T09:00:20.349Z,6.50
2018-12-24T09:01:21.236Z,10.20
2018-12-24T09:02:20.147Z,6.90
2018-12-24T09:03:20.087Z,7.10
2018-12-24T09:04:19.997Z,7.60
2018-12-24T09:05:19.889Z,7.90
2018-12-24T09:06:19.806Z,13.60
2018-12-24T09:07:21.726Z,9.40
2018-12-24T09:08:19.636Z,6.20
2018-12-24T09:09:19.581Z,9.00
2018-12-24T09:10:19.462Z,7.40
2018-12-24T09:11:19.394Z,6.40
2018-12-24T09:12:19.293Z,6.00
2018-12-24T09:13:19.208Z,6.70
2018-12-24T09:14:19.177Z,7.50
2018-12-24T09:15:19.041Z,7.90
2018-12-24T09:16:18.963Z,5.90
2018-12-24T09:17:18.962Z,4.30
2018-12-24T09:18:18.785Z,9.40
2018-12-24T09:19:18.715Z,4.90
2018-12-24T09:20:19.702Z,5.40
2018-12-24T09:21:18.530Z,5.50
2018-12-24T09:22:18.488Z,8.80
2018-12-24T09:23:18.378Z,5.90
2018-12-24T09:24:18.289Z,6.60
2018-12-24T09:25:18.305Z,7.10
2018-12-24T09:26:18.115Z,6.70
2018-12-24T09:27:18.028Z,6.20
2018-12-24T09:28:18.014Z,6.70
2018-12-24T09:29:17.868Z,7.30
2018-12-24T09:30:17.829Z,7.30
2018-12-24T09:31:17.683Z,8.00
2018-12-24T09:32:17.636Z,5.50
2018-12-24T09:33:17.520Z,5.30
2018-12-24T09:34:17.462Z,6.40
2018-12-24T09:35:17.456Z,6.30
2018-12-24T09:36:17.258Z,5.30
2018-12-24T09:37:17.180Z,8.40
2018-12-24T09:38:17.165Z,5.60
2018-12-24T09:39:17.002Z,7.00
2018-12-24T09:40:17.008Z,5.50
2018-12-24T09:41:16.846Z,5.40
2018-12-24T09:42:23.341Z,4.90
2018-12-24T09:43:16.664Z,6.40
2018-12-24T09:44:16.593Z,4.40
2018-12-24T09:45:16.508Z,7.00
2018-12-24T09:46:16.502Z,5.10
2018-12-24T09:47:16.323Z,6.50
2018-12-24T09:48:22.864Z,5.70
2018-12-24T09:49:16.153Z,4.70
2018-12-24T09:50:16.088Z,5.70
2018-12-24T09:51:16.025Z,6.70
2018-12-24T09:52:15.898Z,5.10
2018-12-24T09:53:15.814Z,6.70
2018-12-24T09:54:22.395Z,7.50
2018-12-24T09:55:15.663Z,5.90
2018-12-24T09:56:15.558Z,5.40
2018-12-24T09:57:15.552Z,4.30
2018-12-24T09:58:15.418Z,6.30
2018-12-24T09:59:15.569Z,3.40
2018-12-24T10:00:15.242Z,5.30
2018-12-24T10:01:15.380Z,4.50
2018-12-24T10:02:16.398Z,3.90
2018-12-24T10:03:14.983Z,5.10
2018-12-24T10:04:14.882Z,5.30
2018-12-24T10:05:14.810Z,5.30
2018-12-24T10:06:14.798Z,4.20
2018-12-24T10:07:14.625Z,4.70
2018-12-24T10:08:14.539Z,5.80
2018-12-24T10:09:14.510Z,12.00
2018-12-24T10:10:14.403Z,6.30
2018-12-24T10:11:14.425Z,6.00
2018-12-24T10:12:14.201Z,5.50
2018-12-24T10:13:14.230Z,7.50
2018-12-24T10:14:14.032Z,4.30
2018-12-24T10:15:14.042Z,3.00
2018-12-24T10:16:13.877Z,4.70
2018-12-24T10:17:13.850Z,4.30
2018-12-24T10:18:13.796Z,6.60
2018-12-24T10:19:13.609Z,6.50
2018-12-24T10:20:13.677Z,3.70
2018-12-24T10:21:13.455Z,2.80
2018-12-24T10:22:13.363Z,3.40
2018-12-24T10:23:13.381Z,4.80
2018-12-24T10:24:13.184Z,6.20
2018-12-24T10:25:13.100Z,3.10
2018-12-24T10:26:13.162Z,4.70
2018-12-24T10:27:12.937Z,4.70
2018-12-24T10:28:12.848Z,3.60
2018-12-24T10:29:19.635Z,3.70
2018-12-24T10:30:12.682Z,3.50
2018-12-24T10:31:12.647Z,3.60
2018-12-24T10:32:12.511Z,2.80
2018-12-24T10:33:12.524Z,2.90
2018-12-24T10:34:12.335Z,2.50
2018-12-24T10:35:12.251Z,4.20
2018-12-24T10:36:12.271Z,3.70
2018-12-24T10:37:19.230Z,2.50
2018-12-24T10:38:12.007Z,4.40
2018-12-24T10:39:12.158Z,2.40
2018-12-24T10:40:11.827Z,3.50
2018-12-24T10:41:11.997Z,3.20
2018-12-24T10:42:11.654Z,2.70
2018-12-24T10:43:11.788Z,4.30
2018-12-24T10:44:11.487Z,3.50
2018-12-24T10:45:16.367Z,3.20
2018-12-24T10:46:11.530Z,2.80
2018-12-24T10:47:11.243Z,3.80
2018-12-24T10:48:11.149Z,4.10
2018-12-24T10:49:11.093Z,2.30
2018-12-24T10:50:10.981Z,3.60
2018-12-24T10:51:10.892Z,2.50
2018-12-24T10:52:10.827Z,2.40
2018-12-24T10:53:10.725Z,2.30
2018-12-24T10:54:10.640Z,2.70
2018-12-24T10:55:10.558Z,3.70
2018-12-24T10:56:10.470Z,2.40
2018-12-24T10:57:10.414Z,2.50
2018-12-24T10:58:10.315Z,2.70
2018-12-24T10:59:10.226Z,2.90
2018-12-24T11:00:10.130Z,4.30
2018-12-24T11:01:10.045Z,3.80
2018-12-24T11:02:09.980Z,3.60
2018-12-24T11:03:09.879Z,2.50
2018-12-24T11:04:09.792Z,2.90
2018-12-24T11:05:09.712Z,2.50
2018-12-24T11:06:09.623Z,2.40
2018-12-24T11:07:09.553Z,1.90
2018-12-24T11:08:09.460Z,2.00
2018-12-24T11:09:09.372Z,1.80
2018-12-24T11:10:09.282Z,2.00
2018-12-24T11:11:09.211Z,1.90
2018-12-24T11:12:09.148Z,2.40
2018-12-24T11:13:09.029Z,2.70
2018-12-24T11:14:08.952Z,2.50
2018-12-24T11:15:08.858Z,1.90
2018-12-24T11:16:08.785Z,2.40
2018-12-24T11:17:08.688Z,2.00
2018-12-24T11:18:08.626Z,1.60
2018-12-24T11:19:08.518Z,2.10
2018-12-24T11:20:08.434Z,2.00
2018-12-24T11:21:08.357Z,4.90
2018-12-24T11:22:08.269Z,2.30
2018-12-24T11:23:08.193Z,1.90
2018-12-24T11:24:08.100Z,2.10
2018-12-24T11:25:08.013Z,2.20
2018-12-24T11:26:07.927Z,2.40
2018-12-24T11:27:07.858Z,2.60
2018-12-24T11:28:07.784Z,3.20
2018-12-24T11:29:07.677Z,4.30
2018-12-24T11:30:07.600Z,2.20
2018-12-24T11:31:07.502Z,2.80
2018-12-24T11:32:07.429Z,2.50
2018-12-24T11:33:07.352Z,2.60
2018-12-24T11:34:07.257Z,3.10
2018-12-24T11:35:07.171Z,3.80
2018-12-24T11:36:07.094Z,2.30
2018-12-24T11:37:07.000Z,2.50
2018-12-24T11:38:06.936Z,2.80
2018-12-24T11:39:06.832Z,1.70
2018-12-24T11:40:06.761Z,2.70
2018-12-24T11:41:06.660Z,2.60
2018-12-24T11:42:06.674Z,2.20
2018-12-24T11:43:06.530Z,2.60
2018-12-24T11:44:06.408Z,2.60
2018-12-24T11:45:06.325Z,2.30
2018-12-24T11:46:06.243Z,3.10
2018-12-24T11:47:06.162Z,2.70
2018-12-24T11:48:06.090Z,2.00
2018-12-24T11:49:05.993Z,2.40
2018-12-24T11:50:05.904Z,3.40
2018-12-24T11:51:05.817Z,2.90
2018-12-24T11:52:05.736Z,2.30
2018-12-24T11:53:05.678Z,3.20
2018-12-24T11:54:05.565Z,5.70
2018-12-24T11:55:05.492Z,2.30
2018-12-24T11:56:05.393Z,2.40
2018-12-24T11:57:05.463Z,5.10
2018-12-24T11:58:13.001Z,2.40
2018-12-24T11:59:05.296Z,3.60
2018-12-24T12:00:05.056Z,2.80
2018-12-24T12:01:05.065Z,2.10
2018-12-24T12:02:09.966Z,3.10
2018-12-24T12:03:04.878Z,2.40
2018-12-24T12:04:04.729Z,4.00
2018-12-24T12:05:04.688Z,2.50
2018-12-24T12:06:04.550Z,3.50
2018-12-24T12:07:04.465Z,2.30
2018-12-24T12:08:04.497Z,2.30
2018-12-24T12:09:04.307Z,2.30
2018-12-24T12:10:04.214Z,1.90
2018-12-24T12:11:04.323Z,3.10
2018-12-24T12:12:04.041Z,3.70
2018-12-24T12:13:03.962Z,2.10
2018-12-24T12:14:03.957Z,2.30
2018-12-24T12:15:03.797Z,2.30
2018-12-24T12:16:03.711Z,2.40
2018-12-24T12:17:03.742Z,2.70
2018-12-24T12:18:03.536Z,2.40
2018-12-24T12:19:03.580Z,2.50
2018-12-24T12:20:03.369Z,2.80
2018-12-24T12:21:03.361Z,2.50
2018-12-24T12:22:03.201Z,3.40
2018-12-24T12:23:03.168Z,2.50
2018-12-24T12:24:03.040Z,3.20
2018-12-24T12:25:02.978Z,3.30
2018-12-24T12:26:02.858Z,2.80
2018-12-24T12:27:02.778Z,2.90
2018-12-24T12:28:02.789Z,3.20
2018-12-24T12:29:02.622Z,3.50
2018-12-24T12:30:02.524Z,2.20
2018-12-24T12:31:02.608Z,2.40
2018-12-24T12:32:02.353Z,2.80
2018-12-24T12:33:02.275Z,3.30
2018-12-24T12:34:02.450Z,3.50
2018-12-24T12:35:02.100Z,3.40
2018-12-24T12:36:02.020Z,2.30
2018-12-24T12:37:02.027Z,2.20
2018-12-24T12:38:01.843Z,2.10
2018-12-24T12:39:01.837Z,2.10
2018-12-24T12:40:01.691Z,2.40
2018-12-24T12:41:02.264Z,2.10
2018-12-24T12:42:01.652Z,1.90
2018-12-24T12:43:01.430Z,3.90
2018-12-24T12:44:01.339Z,2.40
2018-12-24T12:45:01.300Z,4.70
2018-12-24T12:46:01.175Z,3.20
2018-12-24T12:47:01.088Z,2.70
2018-12-24T12:48:01.078Z,2.30
2018-12-24T12:49:00.915Z,4.20
2018-12-24T12:50:00.850Z,2.50
2018-12-24T12:51:00.891Z,2.70
2018-12-24T12:52:00.668Z,2.20
2018-12-24T12:53:00.703Z,2.60
2018-12-24T12:54:00.498Z,2.70
2018-12-24T12:55:00.541Z,2.80
2018-12-24T12:56:01.246Z,4.10
2018-12-24T12:57:00.244Z,3.10
2018-12-24T12:58:00.321Z,20.00
2018-12-24T12:59:00.070Z,6.50
2018-12-24T13:00:00.018Z,2.60
2018-12-24T13:00:59.935Z,2.70
2018-12-24T13:01:59.818Z,22.10
2018-12-24T13:02:59.763Z,9.40